Time;durP1;ratioP1;P1;durP2;ratioP2;P2;SDS_P1;SDS_P2;PMS_P1;PMS_P2;Temp;Humidity;BMP_temperature;BMP_pressure;BME280_temperature;BME280_humidity;BME280_pressure;Samples;Min_cycle;Max_cycle;Signal;HPM_P1;HPM_P2
2023/02/23 00:01:55;;;;;;;12.10;8.82;;;7.40;99.90;;;;;;5015443;28;20056;-37
2023/02/23 00:04:23;;;;;;;16.55;8.40;;;7.40;99.90;;;;;;5013620;28;20582;-37
2023/02/23 00:06:52;;;;;;;13.98;8.40;;;7.40;99.90;;;;;;5011281;28;20511;-37
2023/02/23 00:09:23;;;;;;;11.02;8.50;;;7.30;99.90;;;;;;5009485;28;20454;-37
2023/02/23 00:11:56;;;;;;;9.88;8.27;;;7.30;99.90;;;;;;5011554;28;20049;-37
2023/02/23 00:14:29;;;;;;;11.75;9.07;;;7.20;99.90;;;;;;5008017;28;20060;-37
2023/02/23 00:16:58;;;;;;;10.55;8.23;;;7.30;99.90;;;;;;5011482;28;20364;-37
2023/02/23 00:19:26;;;;;;;13.05;9.90;;;7.20;99.90;;;;;;5009287;28;20049;-37
2023/02/23 00:21:57;;;;;;;14.63;10.02;;;7.20;99.90;;;;;;5010235;28;20124;-37
2023/02/23 00:24:25;;;;;;;12.65;8.50;;;7.20;99.90;;;;;;5008671;28;20053;-37
2023/02/23 00:26:54;;;;;;;14.40;11.02;;;7.00;99.90;;;;;;5006167;28;20061;-37
2023/02/23 00:29:23;;;;;;;14.85;10.13;;;7.00;99.90;;;;;;5007380;28;20045;-37
2023/02/23 00:31:51;;;;;;;12.43;8.70;;;7.00;99.90;;;;;;5009909;28;20324;-37
2023/02/23 00:34:20;;;;;;;13.40;9.63;;;7.00;99.90;;;;;;5009205;28;20533;-37
2023/02/23 00:36:55;;;;;;;12.93;8.50;;;7.00;99.90;;;;;;5012191;28;20474;-37
2023/02/23 00:39:27;;;;;;;11.63;8.90;;;7.00;99.90;;;;;;5009761;28;20708;-37
2023/02/23 00:42:01;;;;;;;12.10;9.75;;;7.10;99.90;;;;;;5005034;28;20042;-37
2023/02/23 00:44:29;;;;;;;18.48;11.30;;;7.10;99.90;;;;;;5010847;28;20225;-36
2023/02/23 00:46:57;;;;;;;13.98;9.75;;;7.10;99.90;;;;;;5005256;28;20582;-37
2023/02/23 00:49:25;;;;;;;12.20;9.15;;;7.20;99.90;;;;;;5010347;28;20077;-37
2023/02/23 00:51:52;;;;;;;17.60;7.80;;;7.10;99.90;;;;;;5008741;28;20057;-37
2023/02/23 00:54:21;;;;;;;21.90;10.45;;;7.10;99.90;;;;;;5007941;28;20524;-36
2023/02/23 00:56:49;;;;;;;25.52;10.57;;;7.20;99.90;;;;;;5006259;28;20058;-37
2023/02/23 00:59:18;;;;;;;16.05;12.90;;;7.20;99.90;;;;;;5010128;28;20545;-37
2023/02/23 01:01:46;;;;;;;12.48;9.27;;;7.10;99.90;;;;;;5009111;28;20473;-37
2023/02/23 01:04:14;;;;;;;19.08;11.50;;;7.10;99.90;;;;;;5011472;28;20049;-36
2023/02/23 01:06:42;;;;;;;13.68;8.60;;;7.00;99.90;;;;;;5010410;28;20053;-37
2023/02/23 01:09:13;;;;;;;12.27;9.52;;;7.00;99.90;;;;;;5007822;28;20524;-36
2023/02/23 01:11:40;;;;;;;13.38;11.80;;;7.00;99.90;;;;;;5007221;28;20065;-37
2023/02/23 01:14:09;;;;;;;17.20;9.57;;;6.90;99.90;;;;;;5010278;28;20521;-37
2023/02/23 01:16:37;;;;;;;11.98;10.23;;;6.90;99.90;;;;;;5009590;28;20058;-37
2023/02/23 01:19:06;;;;;;;15.40;10.40;;;6.80;99.90;;;;;;5009651;28;20377;-36
2023/02/23 01:21:43;;;;;;;12.27;9.20;;;6.90;99.90;;;;;;5006703;28;20113;-36
2023/02/23 01:24:12;;;;;;;11.75;9.88;;;6.80;99.90;;;;;;5001900;28;20049;-37
2023/02/23 01:26:44;;;;;;;16.20;10.80;;;6.80;99.90;;;;;;5009370;28;20585;-37
2023/02/23 01:29:14;;;;;;;16.42;11.85;;;6.80;99.90;;;;;;5013420;28;20506;-37
2023/02/23 01:31:45;;;;;;;14.82;9.43;;;6.70;99.90;;;;;;5009423;28;20518;-37
2023/02/23 01:34:17;;;;;;;15.23;10.80;;;6.80;99.90;;;;;;5008057;28;20050;-37
2023/02/23 01:36:44;;;;;;;16.50;11.88;;;6.90;99.90;;;;;;4995417;28;20056;-37
2023/02/23 01:39:14;;;;;;;18.15;11.90;;;6.90;99.90;;;;;;4994526;28;20057;-37
2023/02/23 01:41:43;;;;;;;14.35;11.30;;;6.80;99.90;;;;;;5004834;28;20437;-37
2023/02/23 01:44:13;;;;;;;20.42;11.35;;;6.80;99.90;;;;;;5008286;28;20049;-37
2023/02/23 01:46:44;;;;;;;15.80;11.52;;;6.80;99.90;;;;;;5009454;28;20309;-37
2023/02/23 01:49:18;;;;;;;15.70;11.15;;;6.70;99.90;;;;;;5009214;28;20045;-37
2023/02/23 01:51:51;;;;;;;17.05;11.15;;;6.70;99.90;;;;;;5007921;28;20399;-37
2023/02/23 01:54:23;;;;;;;17.25;12.43;;;6.70;99.90;;;;;;4998782;28;20042;-37
2023/02/23 01:56:56;;;;;;;20.20;11.43;;;6.70;99.90;;;;;;5010709;28;20064;-37
2023/02/23 01:59:35;;;;;;;15.88;11.05;;;6.60;99.90;;;;;;5008080;28;20692;-37
2023/02/23 02:02:06;;;;;;;20.75;13.38;;;6.70;99.90;;;;;;5008787;28;20065;-37
2023/02/23 02:04:43;;;;;;;18.20;14.38;;;6.60;99.90;;;;;;5008367;28;20301;-37
2023/02/23 02:07:24;;;;;;;18.10;10.52;;;6.60;99.90;;;;;;5008353;28;20045;-37
2023/02/23 02:10:38;;;;;;;13.82;8.07;;;6.80;99.90;;;;;;5004848;28;20049;-37
2023/02/23 02:12:50;;;;;;;18.63;11.35;;;6.70;99.90;;;;;;5007800;28;20057;-38
2023/02/23 02:15:21;;;;;;;14.15;10.98;;;6.70;99.90;;;;;;5001735;28;20054;-37
2023/02/23 02:18:08;;;;;;;17.02;12.00;;;6.60;99.90;;;;;;5003595;28;20046;-37
2023/02/23 02:20:54;;;;;;;16.45;12.52;;;6.50;99.90;;;;;;5013772;28;20396;-37
2023/02/23 02:23:40;;;;;;;20.60;15.75;;;6.50;99.90;;;;;;5006092;28;20042;-37
2023/02/23 02:26:25;;;;;;;19.50;12.75;;;6.50;99.90;;;;;;5007098;28;20061;-37
2023/02/23 02:29:05;;;;;;;19.20;11.73;;;6.50;99.90;;;;;;5009654;28;20065;-37
2023/02/23 02:31:42;;;;;;;18.30;11.35;;;6.50;99.90;;;;;;5011077;28;20054;-37
2023/02/23 02:34:10;;;;;;;12.20;10.27;;;6.50;99.90;;;;;;5009333;28;20514;-37
2023/02/23 02:36:56;;;;;;;15.35;11.60;;;6.40;99.90;;;;;;5012564;28;20045;-37
2023/02/23 02:39:45;;;;;;;37.55;13.60;;;6.40;99.90;;;;;;5010697;28;20518;-37
2023/02/23 02:42:38;;;;;;;16.52;11.10;;;6.40;99.90;;;;;;5013084;28;20064;-38
2023/02/23 02:45:21;;;;;;;19.83;11.25;;;6.30;99.90;;;;;;5004667;28;20042;-37
2023/02/23 02:47:57;;;;;;;24.13;12.35;;;6.30;99.90;;;;;;5008796;28;20046;-37
2023/02/23 02:50:51;;;;;;;15.98;12.32;;;6.40;99.90;;;;;;5009140;28;20042;-37
2023/02/23 02:53:30;;;;;;;23.67;12.73;;;6.30;99.90;;;;;;5010473;28;20038;-37
2023/02/23 02:56:00;;;;;;;19.50;10.73;;;6.40;99.90;;;;;;5010771;28;20061;-37
2023/02/23 02:58:28;;;;;;;21.60;13.40;;;6.40;99.90;;;;;;4992677;28;20392;-37
2023/02/23 04:19:51;;;;;;;17.80;11.80;;;6.40;99.90;;;;;;5012084;28;20062;-36
2023/02/23 04:22:18;;;;;;;15.80;12.25;;;6.40;99.90;;;;;;5008296;28;20061;-36
2023/02/23 04:24:46;;;;;;;18.48;13.52;;;6.40;99.90;;;;;;5010347;28;20049;-36
2023/02/23 04:27:14;;;;;;;24.30;13.48;;;6.40;99.90;;;;;;5010478;28;20058;-37
2023/02/23 04:29:43;;;;;;;23.02;13.65;;;6.40;99.90;;;;;;5007395;28;20534;-36
2023/02/23 04:32:16;;;;;;;29.25;14.48;;;6.40;99.90;;;;;;5012291;28;20414;-36
2023/02/23 04:34:44;;;;;;;16.38;11.50;;;6.40;99.90;;;;;;5007560;28;20042;-36
2023/02/23 04:37:13;;;;;;;22.30;14.25;;;6.40;99.90;;;;;;5009667;28;20053;-36
2023/02/23 04:39:47;;;;;;;25.85;14.20;;;6.40;99.90;;;;;;5008178;28;20058;-36
2023/02/23 04:42:16;;;;;;;29.63;14.57;;;6.40;99.90;;;;;;5008475;28;20418;-36
2023/02/23 04:44:44;;;;;;;24.33;13.90;;;6.40;99.90;;;;;;5005148;28;20418;-36
2023/02/23 04:47:14;;;;;;;16.52;12.65;;;6.30;99.90;;;;;;5012005;28;20057;-37
2023/02/23 04:49:43;;;;;;;21.63;12.10;;;6.30;99.90;;;;;;5008844;28;20430;-36
2023/02/23 04:52:10;;;;;;;17.10;14.00;;;6.30;99.90;;;;;;5009455;28;20061;-37
2023/02/23 04:54:39;;;;;;;22.33;13.25;;;6.40;99.90;;;;;;5005366;28;20410;-37
2023/02/23 04:57:06;;;;;;;18.90;12.10;;;6.40;99.90;;;;;;5010361;28;20069;-37
2023/02/23 04:59:34;;;;;;;18.00;12.15;;;6.30;99.90;;;;;;5008446;28;20054;-36
2023/02/23 05:02:02;;;;;;;19.35;14.50;;;6.30;99.90;;;;;;5011998;28;20414;-36
2023/02/23 05:04:29;;;;;;;29.83;14.43;;;6.30;99.90;;;;;;5011181;28;20053;-36
2023/02/23 05:06:57;;;;;;;31.52;14.63;;;6.40;99.90;;;;;;5014185;28;20053;-36
2023/02/23 05:09:24;;;;;;;26.85;14.93;;;6.40;99.90;;;;;;5014866;28;20034;-36
2023/02/23 05:11:52;;;;;;;19.25;13.82;;;6.40;99.90;;;;;;5019692;28;20762;-36
2023/02/23 05:14:19;;;;;;;25.73;14.68;;;6.50;99.90;;;;;;5018484;28;20799;-36
2023/02/23 05:16:47;;;;;;;18.05;13.05;;;6.50;99.90;;;;;;5018410;28;20448;-36
2023/02/23 05:19:14;;;;;;;21.95;12.70;;;6.50;99.90;;;;;;5016763;28;20072;-36
2023/02/23 05:21:42;;;;;;;27.88;16.17;;;6.50;99.90;;;;;;5017938;28;20055;-35
2023/02/23 05:24:09;;;;;;;21.38;14.07;;;6.60;99.90;;;;;;5017979;28;20501;-36
2023/02/23 05:26:37;;;;;;;19.20;14.48;;;6.60;99.90;;;;;;5017247;28;20038;-36
2023/02/23 05:29:05;;;;;;;23.73;13.55;;;6.60;99.90;;;;;;5013151;28;20057;-36
2023/02/23 05:31:33;;;;;;;17.25;14.23;;;6.60;99.90;;;;;;5019484;28;20076;-36
2023/02/23 05:34:00;;;;;;;16.38;12.77;;;6.60;99.90;;;;;;5015832;28;20041;-36
2023/02/23 05:36:29;;;;;;;24.20;14.23;;;6.60;99.90;;;;;;5015667;28;20049;-36
2023/02/23 05:38:56;;;;;;;22.48;14.38;;;6.60;99.90;;;;;;5014805;28;20522;-36
2023/02/23 05:41:24;;;;;;;23.83;14.82;;;6.60;99.90;;;;;;5015452;28;20061;-36
2023/02/23 05:43:52;;;;;;;27.08;14.32;;;6.60;99.90;;;;;;5020313;28;20413;-36
2023/02/23 05:46:22;;;;;;;23.35;11.80;;;6.60;99.90;;;;;;5015307;28;20053;-36
2023/02/23 05:48:55;;;;;;;23.73;14.43;;;6.60;99.90;;;;;;5014176;28;20045;-36
2023/02/23 05:51:23;;;;;;;24.90;12.13;;;6.60;99.90;;;;;;5020849;28;20049;-36
2023/02/23 05:53:51;;;;;;;23.00;13.40;;;6.50;99.90;;;;;;5018933;28;20345;-36
2023/02/23 05:56:22;;;;;;;18.30;14.27;;;6.50;99.90;;;;;;5020967;28;20056;-36
2023/02/23 05:58:58;;;;;;;21.05;13.77;;;6.50;99.90;;;;;;5017541;28;20065;-36
2023/02/23 06:01:26;;;;;;;23.98;13.38;;;6.50;99.90;;;;;;5016026;28;20429;-36
2023/02/23 06:03:54;;;;;;;18.73;13.50;;;6.50;99.90;;;;;;5020560;28;20342;-36
2023/02/23 06:06:24;;;;;;;25.17;12.38;;;6.50;99.90;;;;;;5019291;28;20050;-37
2023/02/23 06:08:52;;;;;;;16.50;12.55;;;6.50;99.90;;;;;;5019856;28;20081;-36
2023/02/23 06:11:20;;;;;;;22.08;14.13;;;6.50;99.90;;;;;;5021702;28;20277;-36
2023/02/23 06:13:48;;;;;;;16.15;13.52;;;6.50;99.90;;;;;;5020691;28;20053;-37
2023/02/23 06:16:16;;;;;;;20.08;13.60;;;6.50;99.90;;;;;;5016977;28;20444;-37
2023/02/23 06:18:44;;;;;;;16.30;12.50;;;6.40;99.90;;;;;;5022540;28;20076;-37
2023/02/23 06:21:11;;;;;;;17.10;11.43;;;6.40;99.90;;;;;;5017355;28;20054;-37
2023/02/23 06:23:39;;;;;;;21.85;13.73;;;6.40;99.90;;;;;;5020080;28;20460;-37
2023/02/23 06:26:07;;;;;;;17.35;12.32;;;6.40;99.90;;;;;;5017077;28;20046;-37
2023/02/23 06:28:35;;;;;;;19.70;12.73;;;6.40;99.90;;;;;;5021453;28;20058;-37
2023/02/23 06:31:03;;;;;;;20.63;14.82;;;6.40;99.90;;;;;;5021357;28;20060;-36
2023/02/23 06:33:30;;;;;;;20.85;11.57;;;6.50;99.90;;;;;;5021388;28;20068;-37
2023/02/23 06:35:58;;;;;;;16.38;12.18;;;6.50;99.90;;;;;;5016951;28;20063;-37
2023/02/23 06:38:26;;;;;;;26.25;13.43;;;6.50;99.90;;;;;;5025147;28;20045;-37
2023/02/23 06:40:54;;;;;;;15.43;11.32;;;6.50;99.90;;;;;;5018826;28;20592;-37
2023/02/23 06:43:22;;;;;;;19.00;13.15;;;6.50;99.90;;;;;;5020113;28;20061;-37
2023/02/23 06:45:49;;;;;;;17.67;12.98;;;6.50;99.90;;;;;;5015377;28;20407;-37
2023/02/23 06:48:17;;;;;;;18.20;14.15;;;6.60;99.90;;;;;;5018440;28;20518;-36
2023/02/23 06:50:44;;;;;;;17.65;11.50;;;6.60;99.90;;;;;;5020225;28;20482;-37
2023/02/23 06:53:12;;;;;;;22.42;13.00;;;6.70;99.90;;;;;;5017812;28;20251;-37
2023/02/23 06:55:39;;;;;;;17.92;11.95;;;6.80;99.90;;;;;;5017206;28;20435;-37
2023/02/23 06:58:07;;;;;;;20.27;13.25;;;6.90;99.90;;;;;;5020419;28;20077;-36
2023/02/23 07:00:35;;;;;;;13.55;11.15;;;7.00;99.90;;;;;;5020434;28;20417;-36
2023/02/23 07:03:02;;;;;;;19.17;10.88;;;7.00;99.90;;;;;;5019768;28;20092;-36
2023/02/23 07:05:30;;;;;;;13.90;9.52;;;7.00;99.90;;;;;;5017102;28;20038;-37
2023/02/23 07:07:57;;;;;;;14.35;8.38;;;7.00;99.90;;;;;;5017546;28;20050;-40
2023/02/23 07:10:25;;;;;;;13.98;11.43;;;7.00;99.90;;;;;;5020045;28;20072;-39
2023/02/23 07:12:53;;;;;;;19.33;11.05;;;6.90;99.90;;;;;;5017296;28;20403;-38
2023/02/23 07:15:21;;;;;;;22.80;12.60;;;7.00;99.90;;;;;;5017605;28;20065;-38
2023/02/23 07:17:50;;;;;;;20.08;13.57;;;7.10;99.90;;;;;;5016634;28;20053;-38
2023/02/23 07:20:18;;;;;;;19.00;12.25;;;7.10;99.90;;;;;;5020541;28;20422;-37
2023/02/23 07:22:46;;;;;;;19.60;12.88;;;7.20;99.90;;;;;;5018240;28;20060;-37
2023/02/23 07:25:13;;;;;;;24.02;12.90;;;7.30;99.90;;;;;;5017040;28;20042;-36
2023/02/23 07:27:41;;;;;;;22.30;12.30;;;7.40;99.90;;;;;;5022014;28;20394;-37
2023/02/23 07:30:09;;;;;;;18.92;12.80;;;7.50;99.90;;;;;;5019773;28;20053;-37
2023/02/23 07:32:37;;;;;;;20.50;13.60;;;7.60;99.90;;;;;;5016789;28;20057;-37
2023/02/23 07:35:05;;;;;;;19.27;13.48;;;7.70;99.90;;;;;;5016060;28;20266;-37
2023/02/23 07:37:32;;;;;;;18.13;12.10;;;7.70;99.90;;;;;;5019359;28;20045;-38
2023/02/23 07:40:00;;;;;;;14.20;10.82;;;7.80;99.90;;;;;;5019266;28;20406;-37
2023/02/23 07:42:28;;;;;;;17.95;11.35;;;7.80;99.90;;;;;;5016999;28;20074;-38
2023/02/23 07:44:55;;;;;;;19.45;11.70;;;7.80;99.90;;;;;;5018962;28;20042;-37
2023/02/23 07:47:29;;;;;;;28.02;11.90;;;7.80;99.90;;;;;;5018442;28;20067;-37
2023/02/23 07:49:58;;;;;;;20.90;14.65;;;7.80;99.90;;;;;;5039723;28;20056;-37
2023/02/23 07:52:26;;;;;;;13.90;10.43;;;7.90;99.90;;;;;;5037327;28;20426;-36
2023/02/23 07:54:53;;;;;;;18.65;12.70;;;7.90;99.90;;;;;;5034969;28;20064;-36
2023/02/23 07:57:21;;;;;;;21.02;12.75;;;8.00;99.90;;;;;;5035087;28;20548;-38
2023/02/23 07:59:51;;;;;;;17.20;11.15;;;8.00;99.90;;;;;;5029578;28;20072;-37
2023/02/23 08:02:18;;;;;;;25.05;10.95;;;8.00;99.90;;;;;;5036712;28;20042;-38
2023/02/23 08:04:47;;;;;;;15.88;10.57;;;8.10;99.90;;;;;;5033843;28;20069;-37
2023/02/23 08:07:14;;;;;;;16.40;11.10;;;8.10;99.90;;;;;;5026725;28;20060;-37
2023/02/23 08:09:42;;;;;;;14.48;9.82;;;8.20;99.90;;;;;;5035282;28;20056;-37
2023/02/23 08:12:09;;;;;;;15.95;10.00;;;8.20;99.90;;;;;;5023677;28;20045;-37
2023/02/23 08:14:37;;;;;;;16.67;11.60;;;8.30;99.90;;;;;;5037266;28;20130;-37
2023/02/23 08:17:04;;;;;;;12.05;9.70;;;8.40;99.90;;;;;;5033431;28;20046;-37
2023/02/23 08:19:33;;;;;;;17.35;9.07;;;8.40;99.90;;;;;;5029709;28;20077;-38
2023/02/23 08:22:00;;;;;;;19.17;10.70;;;8.50;99.90;;;;;;5031740;28;20521;-37
2023/02/23 08:24:29;;;;;;;17.05;9.15;;;8.50;99.90;;;;;;5038096;28;20068;-38
2023/02/23 08:26:58;;;;;;;16.02;9.75;;;8.50;99.90;;;;;;5026130;28;20072;-39
2023/02/23 08:29:25;;;;;;;16.42;10.40;;;8.60;99.90;;;;;;5039238;28;20041;-37
2023/02/23 08:31:53;;;;;;;21.25;10.63;;;8.60;99.90;;;;;;5036229;28;20057;-37
2023/02/23 08:34:21;;;;;;;17.52;9.48;;;8.60;99.90;;;;;;5036847;28;20421;-37
2023/02/23 08:36:49;;;;;;;16.45;11.57;;;8.60;99.90;;;;;;5039445;28;20045;-36
2023/02/23 08:39:16;;;;;;;16.00;10.90;;;8.60;99.90;;;;;;5038296;28;20053;-37
2023/02/23 08:41:44;;;;;;;24.92;12.80;;;8.50;99.90;;;;;;5035390;28;20061;-36
2023/02/23 08:44:11;;;;;;;19.08;10.57;;;8.50;99.90;;;;;;5037500;28;20064;-37
2023/02/23 08:46:39;;;;;;;24.10;11.68;;;8.50;99.90;;;;;;5037333;28;20048;-36
2023/02/23 08:49:10;;;;;;;19.05;9.27;;;8.60;99.90;;;;;;5037017;28;20044;-37
2023/02/23 08:51:37;;;;;;;16.83;11.70;;;8.60;99.90;;;;;;5036111;28;20301;-36
2023/02/23 08:54:11;;;;;;;27.33;12.70;;;8.60;99.90;;;;;;5035745;28;20048;-36
2023/02/23 08:56:42;;;;;;;22.45;12.77;;;8.60;99.90;;;;;;5039433;28;20059;-36
2023/02/23 08:59:12;;;;;;;17.77;10.50;;;8.60;99.90;;;;;;5034564;28;20053;-36
2023/02/23 09:01:41;;;;;;;17.60;10.88;;;8.70;99.90;;;;;;5036016;28;20045;-35
2023/02/23 09:04:08;;;;;;;17.67;13.25;;;8.70;99.90;;;;;;5030640;28;20053;-36
2023/02/23 09:06:36;;;;;;;15.70;9.38;;;8.60;99.90;;;;;;5039189;28;20056;-36
2023/02/23 09:09:04;;;;;;;17.08;11.90;;;8.70;99.90;;;;;;5035124;28;20060;-37
2023/02/23 09:11:32;;;;;;;14.85;9.73;;;8.80;99.90;;;;;;5036753;28;20052;-37
2023/02/23 09:13:59;;;;;;;17.02;11.15;;;8.70;99.90;;;;;;5038537;28;20060;-37
2023/02/23 09:16:27;;;;;;;13.40;10.15;;;8.80;99.90;;;;;;5039862;28;20055;-36
2023/02/23 09:18:54;;;;;;;16.45;10.15;;;8.80;99.90;;;;;;5034934;28;20045;-37
2023/02/23 09:21:23;;;;;;;16.42;12.07;;;8.80;99.90;;;;;;5036871;28;20042;-37
2023/02/23 09:23:54;;;;;;;21.80;12.73;;;8.80;99.90;;;;;;5038966;28;20059;-37
2023/02/23 09:26:23;;;;;;;16.40;10.70;;;8.90;99.90;;;;;;5028552;28;20053;-37
2023/02/23 09:28:51;;;;;;;12.85;9.57;;;8.90;99.90;;;;;;5029023;28;20194;-37
2023/02/23 09:31:22;;;;;;;20.20;9.70;;;9.00;99.90;;;;;;5033462;28;20049;-37
2023/02/23 09:33:50;;;;;;;13.70;11.68;;;9.10;99.90;;;;;;5028734;28;20049;-37
2023/02/23 09:36:21;;;;;;;14.93;10.20;;;9.10;99.90;;;;;;5031535;28;20053;-36
2023/02/23 09:38:54;;;;;;;29.20;14.18;;;9.30;99.90;;;;;;5017671;28;20078;-37
2023/02/23 09:41:24;;;;;;;16.38;9.90;;;9.30;99.90;;;;;;5039475;28;20117;-37
2023/02/23 09:44:30;;;;;;;10.97;9.37;;;9.30;99.90;;;;;;5043054;28;20049;-38
2023/02/23 09:47:08;;;;;;;15.80;9.88;;;9.40;99.90;;;;;;5010214;28;20334;-37
2023/02/23 09:49:41;;;;;;;20.42;9.90;;;9.40;99.90;;;;;;5020612;28;20054;-37
2023/02/23 09:52:21;;;;;;;19.88;11.55;;;9.40;99.90;;;;;;5038892;28;20053;-37
2023/02/23 09:54:49;;;;;;;19.55;12.65;;;9.40;99.90;;;;;;5035197;28;20053;-37
2023/02/23 09:57:23;;;;;;;27.27;12.63;;;9.50;99.90;;;;;;5043151;28;20088;-37
2023/02/23 09:59:50;;;;;;;13.57;10.65;;;9.40;99.90;;;;;;5040015;28;20103;-37
2023/02/23 10:02:57;;;;;;;16.23;12.73;;;9.40;99.90;;;;;;5031407;28;20042;-36
2023/02/23 10:05:30;;;;;;;16.95;10.90;;;9.40;99.90;;;;;;5010942;28;20040;-36
2023/02/23 10:08:06;;;;;;;16.17;12.30;;;9.40;99.90;;;;;;5052831;28;20049;-37
2023/02/23 10:11:04;;;;;;;14.50;11.30;;;9.50;99.90;;;;;;5053463;28;20056;-37
2023/02/23 10:13:52;;;;;;;16.85;9.35;;;9.50;99.90;;;;;;5045783;28;20241;-37
2023/02/23 10:16:28;;;;;;;15.82;12.32;;;9.50;99.90;;;;;;5050929;28;20045;-37
2023/02/23 10:19:29;;;;;;;17.83;10.75;;;9.60;99.90;;;;;;5056727;28;20055;-37
2023/02/23 10:22:02;;;;;;;18.40;12.48;;;9.60;99.90;;;;;;5048831;28;20179;-37
2023/02/23 10:24:36;;;;;;;20.33;11.68;;;9.70;99.90;;;;;;5055085;28;20056;-37
2023/02/23 10:27:16;;;;;;;13.57;10.68;;;9.70;99.90;;;;;;5014313;28;20052;-37
2023/02/23 10:30:00;;;;;;;16.98;12.32;;;9.80;99.90;;;;;;5052793;28;20060;-37
2023/02/23 10:32:39;;;;;;;23.20;13.07;;;9.80;99.90;;;;;;5054858;28;20072;-37
2023/02/23 10:35:13;;;;;;;10.98;9.52;;;9.80;99.90;;;;;;5025816;28;20056;-37
2023/02/23 10:37:40;;;;;;;14.57;10.82;;;9.80;99.90;;;;;;5032827;28;20041;-37
2023/02/23 10:40:16;;;;;;;18.75;11.20;;;9.90;99.90;;;;;;5030300;28;20053;-37
2023/02/23 10:42:44;;;;;;;14.18;8.63;;;9.90;99.90;;;;;;5027551;28;20053;-37
2023/02/23 10:45:23;;;;;;;23.75;11.50;;;9.80;99.90;;;;;;5033517;28;20037;-37
2023/02/23 10:47:59;;;;;;;14.93;11.10;;;9.90;99.90;;;;;;5033310;28;20053;-37
2023/02/23 10:50:27;;;;;;;14.18;11.95;;;9.90;99.90;;;;;;5035809;28;20513;-37
2023/02/23 10:53:26;;;;;;;18.80;10.88;;;9.90;99.90;;;;;;5033477;28;20532;-38
2023/02/23 10:56:15;;;;;;;17.65;10.75;;;9.90;99.90;;;;;;5028296;28;20433;-37
2023/02/23 10:58:47;;;;;;;18.52;10.35;;;10.00;99.90;;;;;;5024075;28;20050;-37
2023/02/23 11:01:31;;;;;;;12.63;8.80;;;10.10;99.90;;;;;;5023692;28;20049;-37
2023/02/23 11:04:17;;;;;;;14.63;8.45;;;10.10;99.90;;;;;;5030769;28;20429;-37
2023/02/23 11:06:47;;;;;;;14.98;9.30;;;10.00;99.90;;;;;;5034110;28;20646;-38
2023/02/23 11:09:25;;;;;;;15.85;9.13;;;10.00;99.90;;;;;;5031245;28;20049;-37
2023/02/23 11:12:20;;;;;;;21.35;10.65;;;10.30;99.90;;;;;;5028265;28;20068;-37
2023/02/23 11:14:52;;;;;;;21.90;11.65;;;10.40;99.90;;;;;;5032433;28;20046;-37
2023/02/23 11:17:26;;;;;;;17.35;12.00;;;10.50;99.90;;;;;;5032388;28;20461;-37
2023/02/23 11:20:01;;;;;;;15.20;9.85;;;10.50;99.90;;;;;;5034586;28;20421;-38
2023/02/23 11:22:33;;;;;;;14.00;9.00;;;10.30;99.90;;;;;;5033571;28;20424;-38
2023/02/23 11:25:11;;;;;;;13.88;10.77;;;10.40;99.90;;;;;;5030930;28;20040;-37
2023/02/23 11:27:45;;;;;;;10.68;9.05;;;10.50;99.90;;;;;;5034215;28;20069;-37
2023/02/23 11:30:13;;;;;;;10.75;8.07;;;10.60;99.90;;;;;;5034115;28;20052;-38
2023/02/23 11:32:42;;;;;;;13.18;9.30;;;10.60;99.90;;;;;;5031531;28;20053;-37
2023/02/23 11:35:19;;;;;;;15.63;9.82;;;10.60;99.90;;;;;;5029792;28;20536;-38
2023/02/23 11:37:48;;;;;;;12.00;9.15;;;10.60;99.90;;;;;;5028569;28;20053;-36
2023/02/23 11:40:30;;;;;;;16.80;10.68;;;10.60;99.90;;;;;;5031858;28;20093;-37
2023/02/23 11:43:17;;;;;;;14.60;9.40;;;10.70;99.90;;;;;;5053850;28;20472;-38
2023/02/23 11:45:45;;;;;;;14.40;8.68;;;10.60;99.90;;;;;;5039122;28;20048;-37
2023/02/23 11:48:24;;;;;;;12.23;8.98;;;10.80;99.90;;;;;;5043565;28;20041;-38
2023/02/23 11:50:53;;;;;;;17.95;8.80;;;10.90;99.90;;;;;;5054251;28;20052;-36
2023/02/23 11:53:30;;;;;;;17.52;9.43;;;10.90;99.90;;;;;;5058119;28;20049;-36
2023/02/23 11:56:06;;;;;;;11.48;7.57;;;10.70;99.90;;;;;;5056331;28;20052;-37
2023/02/23 11:58:46;;;;;;;12.90;7.93;;;10.70;99.90;;;;;;5052274;28;20253;-40
2023/02/23 12:01:20;;;;;;;13.88;8.63;;;10.70;99.90;;;;;;5054364;28;20051;-37
2023/02/23 12:03:54;;;;;;;10.68;7.32;;;10.70;99.90;;;;;;5048775;28;20438;-38
2023/02/23 12:06:40;;;;;;;9.40;5.85;;;10.60;99.90;;;;;;5053663;28;20052;-37
2023/02/23 12:09:22;;;;;;;8.73;6.15;;;10.90;99.90;;;;;;5052449;28;20083;-36
2023/02/23 12:12:13;;;;;;;8.82;6.85;;;11.20;99.90;;;;;;5050627;28;20402;-40
2023/02/23 12:14:50;;;;;;;9.33;7.27;;;11.30;99.90;;;;;;5047804;28;20348;-37
2023/02/23 12:17:24;;;;;;;10.55;7.22;;;11.30;99.90;;;;;;5054123;28;20044;-38
2023/02/23 12:20:00;;;;;;;13.77;7.72;;;11.10;99.90;;;;;;5053374;28;20120;-37
2023/02/23 12:22:33;;;;;;;10.93;7.40;;;11.10;99.90;;;;;;5051879;28;20060;-38
2023/02/23 12:25:30;;;;;;;15.15;8.77;;;11.20;99.90;;;;;;5044548;28;20040;-38
2023/02/23 12:28:26;;;;;;;17.48;8.02;;;11.00;99.90;;;;;;5039798;28;20453;-38
2023/02/23 12:31:28;;;;;;;12.68;7.60;;;11.00;99.90;;;;;;5047968;28;20059;-38
2023/02/23 12:34:07;;;;;;;12.80;7.57;;;11.00;99.90;;;;;;5014996;28;20523;-38
2023/02/23 12:36:49;;;;;;;8.30;7.50;;;11.00;99.90;;;;;;5053153;28;20063;-37
2023/02/23 12:39:40;;;;;;;13.68;8.95;;;11.10;99.90;;;;;;5053078;28;20509;-38
2023/02/23 12:42:08;;;;;;;8.32;6.88;;;11.10;99.90;;;;;;5052051;28;20429;-37
2023/02/23 12:44:45;;;;;;;10.00;6.43;;;11.10;99.90;;;;;;5044769;28;20044;-37
2023/02/23 12:47:30;;;;;;;9.70;7.20;;;11.20;99.90;;;;;;5051636;28;20056;-37
2023/02/23 12:50:12;;;;;;;15.43;6.82;;;11.30;99.90;;;;;;5038168;28;20060;-38
2023/02/23 12:52:49;;;;;;;7.70;6.05;;;11.30;99.90;;;;;;5053393;28;20056;-37
2023/02/23 12:55:29;;;;;;;7.03;5.03;;;11.40;99.90;;;;;;5044455;28;20048;-38
2023/02/23 12:58:11;;;;;;;7.68;5.63;;;11.30;99.90;;;;;;5052484;28;20044;-38
2023/02/23 13:00:50;;;;;;;11.38;6.63;;;11.30;99.90;;;;;;5046389;28;20049;-38
2023/02/23 13:03:55;;;;;;;8.73;7.07;;;11.20;99.90;;;;;;5047707;28;20051;-38
2023/02/23 13:06:36;;;;;;;8.77;5.68;;;11.10;99.90;;;;;;5049934;28;20523;-37
2023/02/23 13:09:15;;;;;;;7.82;5.28;;;11.20;99.90;;;;;;5050736;28;20749;-36
2023/02/23 13:12:15;;;;;;;9.07;7.07;;;11.20;99.90;;;;;;5053706;28;20061;-37
2023/02/23 13:14:57;;;;;;;9.95;6.03;;;11.20;99.90;;;;;;5051505;28;20073;-38
2023/02/23 13:17:43;;;;;;;6.57;5.85;;;11.50;99.90;;;;;;5029255;28;20040;-38
2023/02/23 13:20:24;;;;;;;10.77;6.18;;;11.50;99.90;;;;;;5047202;28;20059;-37
2023/02/23 13:22:54;;;;;;;10.07;6.47;;;11.60;99.90;;;;;;5051687;28;20460;-37
2023/02/23 13:25:40;;;;;;;14.43;7.22;;;11.60;99.90;;;;;;5035853;28;20510;-36
2023/02/23 13:28:17;;;;;;;9.95;6.20;;;11.50;99.90;;;;;;5049231;28;20045;-38
2023/02/23 13:30:46;;;;;;;10.32;7.22;;;11.60;99.90;;;;;;5046486;28;20056;-37
2023/02/23 13:33:26;;;;;;;8.00;5.70;;;11.80;99.90;;;;;;5052172;28;20041;-37
2023/02/23 13:36:11;;;;;;;10.07;7.93;;;11.80;99.90;;;;;;5054043;28;20413;-37
2023/02/23 13:38:45;;;;;;;12.50;6.63;;;11.80;99.90;;;;;;5045999;28;20044;-37
2023/02/23 13:41:34;;;;;;;10.52;7.15;;;11.80;99.90;;;;;;5052772;28;20045;-38
2023/02/23 13:44:21;;;;;;;7.82;5.90;;;11.70;99.90;;;;;;5054232;28;20461;-37
2023/02/23 13:46:59;;;;;;;12.88;8.50;;;11.60;99.90;;;;;;5050307;28;20052;-37
2023/02/23 13:49:41;;;;;;;9.27;6.55;;;11.50;99.90;;;;;;5050806;28;20063;-38
2023/02/23 13:52:36;;;;;;;10.90;8.35;;;11.40;99.90;;;;;;5050922;28;20057;-38
2023/02/23 13:55:24;;;;;;;11.30;8.18;;;11.40;99.90;;;;;;5042265;28;20526;-38
2023/02/23 13:57:56;;;;;;;8.55;5.63;;;11.40;99.90;;;;;;5052053;28;20412;-37
2023/02/23 14:00:24;;;;;;;7.50;5.82;;;11.60;99.90;;;;;;5050169;28;20548;-38
2023/02/23 14:02:52;;;;;;;15.88;6.32;;;11.50;99.90;;;;;;5053748;28;20051;-38
2023/02/23 14:05:25;;;;;;;9.25;6.20;;;11.60;99.90;;;;;;5055877;28;20040;-38
2023/02/23 14:08:04;;;;;;;7.47;6.03;;;11.50;99.90;;;;;;5048697;28;20055;-38
2023/02/23 14:10:38;;;;;;;9.07;8.13;;;11.40;99.90;;;;;;5051713;28;20062;-38
2023/02/23 14:13:12;;;;;;;12.10;7.53;;;11.40;99.90;;;;;;5045073;28;20535;-37
2023/02/23 14:15:48;;;;;;;14.05;6.40;;;11.40;99.90;;;;;;5056340;28;20060;-37
2023/02/23 14:18:24;;;;;;;10.07;5.50;;;11.50;99.90;;;;;;5054228;28;20041;-38
2023/02/23 14:21:23;;;;;;;10.80;7.43;;;11.40;99.90;;;;;;5058779;28;21027;-38
2023/02/23 14:24:02;;;;;;;7.55;6.50;;;11.30;99.90;;;;;;5053690;28;20061;-37
2023/02/23 14:26:29;;;;;;;10.38;7.07;;;11.30;99.90;;;;;;5057973;28;20127;-38
2023/02/23 14:29:18;;;;;;;10.82;7.53;;;11.30;99.90;;;;;;5054530;28;20075;-41